Florence, Minnesota
Current Conditions -  °F | °C
As of 2:14 PM on Thursday 30 Oct 2014 (Local Time) from KPQN Reporting Station
Overcast Overcast  
Wind Chill: 52°   Ceiling: 4300
Heat Index: 52°   Visibility: 10mi
Dew Point: 37°   Wind: 14mph
Humidity: 58%   Direction: 360°N
Pressure: 30.13"   Gusts: 18mph
Location:  44.1777°N, 96.0531°W
Report Text: KPQN 301914Z AUTO 36012G16KT 10SM SCT032 BKN043 OVC055 11/03 A3013 RMK AO2
Loading
Personal Weather Stations






























Interactive Weather Map
Tropical Storm Tracking
New forecast layout! Learn more

10-Day Weather Forecast

Advertisements
Track Severe Weather on mobile